Time;durP1;ratioP1;P1;durP2;ratioP2;P2;SDS_P1;SDS_P2;PMS_P1;PMS_P2;Temp;Humidity;BMP_temperature;BMP_pressure;BME280_temperature;BME280_humidity;BME280_pressure;Samples;Min_cycle;Max_cycle;Signal;HPM_P1;HPM_P2
2021/07/19 00:00:20;;;;;;;8.13;4.20;;;20.10;99.90;;;20.24;89.25;98423.34;5012107;28;20676;-81
2021/07/19 00:02:54;;;;;;;4.03;3.50;;;20.10;99.90;;;20.23;88.19;98427.81;5002575;28;20697;-82
2021/07/19 00:05:26;;;;;;;5.47;4.40;;;20.10;99.90;;;20.21;90.12;98424.50;5022894;28;20692;-83
2021/07/19 00:07:56;;;;;;;4.83;4.33;;;20.10;99.90;;;20.19;88.75;98417.66;5025520;28;21134;-82
2021/07/19 00:10:25;;;;;;;6.53;4.40;;;20.10;99.90;;;20.18;89.31;98419.50;5025403;28;20646;-81
2021/07/19 00:12:56;;;;;;;4.87;4.30;;;20.10;99.90;;;20.14;88.96;98422.63;5021005;28;20649;-82
2021/07/19 00:15:29;;;;;;;5.57;4.23;;;20.00;99.90;;;20.13;89.56;98415.66;5020292;28;20696;-82
2021/07/19 00:17:58;;;;;;;4.77;4.30;;;20.00;99.90;;;20.18;89.27;98418.69;5021789;28;20745;-81
2021/07/19 00:20:27;;;;;;;5.67;4.60;;;20.10;99.90;;;20.16;89.45;98410.88;5007361;28;21249;-82
2021/07/19 00:22:56;;;;;;;7.57;4.70;;;20.10;99.90;;;20.12;88.78;98406.06;5020012;28;20630;-82
2021/07/19 00:25:25;;;;;;;5.37;4.60;;;20.00;99.90;;;20.09;90.40;98414.31;5008303;28;21315;-81
2021/07/19 00:27:56;;;;;;;4.27;3.87;;;20.00;99.90;;;20.04;89.95;98413.94;5020287;28;21030;-82
2021/07/19 00:30:26;;;;;;;5.00;4.43;;;19.90;99.90;;;19.98;89.09;98415.41;5024696;28;20661;-81
2021/07/19 00:32:57;;;;;;;6.60;4.33;;;19.90;99.90;;;19.91;88.18;98422.28;5022737;28;20659;-81
2021/07/19 00:35:28;;;;;;;4.93;4.40;;;19.80;99.90;;;19.89;88.89;98418.13;5004684;28;20682;-81
2021/07/19 00:37:57;;;;;;;5.30;4.80;;;19.80;99.90;;;19.86;89.86;98418.47;5023876;28;20658;-81
2021/07/19 00:40:29;;;;;;;5.23;4.73;;;19.80;99.90;;;19.82;88.74;98421.53;5021367;28;20671;-81
2021/07/19 00:43:00;;;;;;;6.67;4.13;;;19.80;99.90;;;19.79;88.64;98412.06;5021971;28;20721;-82
2021/07/19 00:45:31;;;;;;;6.53;4.23;;;19.70;99.90;;;19.81;89.35;98411.91;5017319;28;20697;-81
2021/07/19 00:48:04;;;;;;;8.23;4.43;;;19.70;99.90;;;19.80;88.83;98416.38;5003436;28;21069;-81
2021/07/19 00:50:36;;;;;;;4.50;4.10;;;19.70;99.90;;;19.77;88.96;98406.09;5014390;28;20629;-82
2021/07/19 00:53:08;;;;;;;5.03;4.47;;;19.70;99.90;;;19.68;89.20;98408.81;5026014;28;20634;-82
2021/07/19 00:55:42;;;;;;;5.37;4.87;;;19.60;99.90;;;19.62;89.06;98393.53;5013222;28;20639;-81
2021/07/19 00:58:15;;;;;;;5.50;4.77;;;19.50;99.90;;;19.60;88.98;98406.09;5022318;28;20642;-81
2021/07/19 01:00:53;;;;;;;5.87;4.37;;;19.50;99.90;;;19.55;90.55;98403.91;5021691;28;20648;-81
2021/07/19 01:03:24;;;;;;;6.20;4.40;;;19.50;99.90;;;19.52;90.08;98400.75;5012761;28;20736;-81
2021/07/19 01:05:56;;;;;;;12.03;5.17;;;19.40;99.90;;;19.50;90.70;98402.69;5025029;28;20646;-81
2021/07/19 01:08:28;;;;;;;8.70;4.87;;;19.40;99.90;;;19.47;90.36;98401.22;5007254;28;20639;-82
2021/07/19 01:10:59;;;;;;;6.27;4.87;;;19.40;99.90;;;19.47;90.02;98403.03;5021779;28;20653;-81
2021/07/19 01:13:30;;;;;;;4.60;4.20;;;19.40;99.90;;;19.38;89.96;98407.41;5027320;28;20630;-81
2021/07/19 01:15:59;;;;;;;5.23;4.73;;;19.30;99.90;;;19.34;90.90;98402.56;5009328;28;20644;-81
2021/07/19 01:18:30;;;;;;;5.57;4.90;;;19.30;99.90;;;19.30;90.67;98410.94;5009627;28;20760;-82
2021/07/19 01:21:33;;;;;;;5.73;5.07;;;19.20;99.90;;;19.26;90.86;98399.00;5036175;28;20691;-81
2021/07/19 01:24:46;;;;;;;5.10;4.57;;;19.20;99.90;;;19.15;90.67;98407.97;5006011;28;21213;-81
2021/07/19 01:28:02;;;;;;;5.83;4.70;;;19.10;99.90;;;19.12;89.90;98400.34;4952067;28;20996;-81
2021/07/19 01:30:33;;;;;;;8.13;4.97;;;19.10;99.90;;;19.12;90.80;98404.81;4968705;28;20689;-81
2021/07/19 01:33:04;;;;;;;6.03;4.67;;;19.00;99.90;;;19.10;91.26;98412.06;5018392;28;20700;-81
2021/07/19 01:35:37;;;;;;;8.20;4.57;;;19.00;99.90;;;19.10;91.04;98406.78;5025472;28;21189;-81
2021/07/19 01:38:07;;;;;;;4.93;4.20;;;19.00;99.90;;;19.11;89.85;98405.78;5006058;28;21006;-82
2021/07/19 01:40:44;;;;;;;7.20;4.97;;;19.00;99.90;;;19.11;91.41;98408.44;5012320;28;20630;-81
2021/07/19 01:43:14;;;;;;;5.00;4.50;;;19.10;99.90;;;19.10;91.04;98409.44;5032300;28;20642;-82
2021/07/19 01:45:46;;;;;;;12.07;4.90;;;19.00;99.90;;;19.12;90.25;98399.53;5009979;28;20636;-81
2021/07/19 01:48:15;;;;;;;5.17;4.67;;;19.00;99.90;;;19.10;91.31;98410.25;5026673;28;20641;-81
2021/07/19 01:50:44;;;;;;;7.50;4.60;;;19.00;99.90;;;19.07;90.44;98394.69;5034523;28;20688;-80
2021/07/19 01:53:19;;;;;;;5.63;4.90;;;19.00;99.90;;;19.05;91.94;98399.31;5013875;28;20761;-81
2021/07/19 01:55:51;;;;;;;6.80;5.10;;;19.00;99.90;;;19.06;92.10;98403.63;5013452;28;20630;-82
2021/07/19 01:58:23;;;;;;;6.63;4.97;;;19.00;99.90;;;19.06;91.05;98403.63;5008528;28;21067;-81
2021/07/19 02:01:09;;;;;;;5.23;4.73;;;19.00;99.90;;;19.00;91.07;98400.69;5010880;28;20622;-81
2021/07/19 02:03:38;;;;;;;5.73;4.60;;;19.00;99.90;;;18.95;91.00;98397.66;5012738;28;20648;-81
2021/07/19 02:06:10;;;;;;;4.90;4.23;;;18.90;99.90;;;18.92;90.45;98404.06;5030613;28;20677;-80
2021/07/19 02:08:45;;;;;;;5.13;4.30;;;18.90;99.90;;;18.90;91.65;98399.94;5012507;28;20639;-81
2021/07/19 02:11:18;;;;;;;6.87;4.47;;;18.90;99.90;;;18.91;91.58;98396.28;5026594;28;21337;-81
2021/07/19 02:13:48;;;;;;;6.00;5.10;;;18.90;99.90;;;18.91;91.39;98404.22;5033320;28;21576;-81
2021/07/19 02:16:27;;;;;;;5.10;4.60;;;18.80;99.90;;;18.88;91.66;98405.38;5030257;28;20662;-81
2021/07/19 02:18:58;;;;;;;5.33;4.83;;;18.80;99.90;;;18.87;92.23;98400.22;5013536;28;20641;-81
2021/07/19 02:21:32;;;;;;;10.13;5.00;;;18.80;99.90;;;18.84;91.30;98407.59;5033807;28;21450;-81
2021/07/19 02:24:26;;;;;;;8.03;5.90;;;18.80;99.90;;;18.82;91.54;98406.91;5042837;28;20768;-82
2021/07/19 02:27:14;;;;;;;7.00;5.27;;;18.80;99.90;;;18.75;91.54;98416.41;5012979;28;20641;-81
2021/07/19 02:29:46;;;;;;;5.90;5.00;;;18.60;99.90;;;18.71;92.26;98417.69;5012412;28;20991;-81
2021/07/19 02:32:17;;;;;;;6.10;5.10;;;18.60;99.90;;;18.68;92.19;98432.03;5008281;28;20668;-81
2021/07/19 02:34:52;;;;;;;5.90;5.20;;;18.60;99.90;;;18.66;92.90;98423.44;5029403;28;20628;-81
2021/07/19 02:37:24;;;;;;;6.30;5.33;;;18.60;99.90;;;18.66;92.72;98417.31;5009797;28;20626;-81
2021/07/19 02:40:17;;;;;;;7.17;4.77;;;18.50;99.90;;;18.61;92.27;98417.75;5015622;28;21168;-82
2021/07/19 02:42:49;;;;;;;7.23;5.40;;;18.50;99.90;;;18.60;92.70;98426.66;5030110;28;20627;-81
2021/07/19 02:45:21;;;;;;;6.27;5.57;;;18.50;99.90;;;18.59;92.57;98421.50;5013897;28;20736;-82
2021/07/19 02:47:57;;;;;;;5.83;4.83;;;18.50;99.90;;;18.56;92.09;98417.34;5030213;28;20667;-82
2021/07/19 02:50:36;;;;;;;6.57;4.97;;;18.50;99.90;;;18.53;92.47;98419.44;5013462;28;20638;-82
2021/07/19 02:53:10;;;;;;;7.60;5.97;;;18.50;99.90;;;18.51;93.15;98413.50;5012565;28;20723;-81
2021/07/19 02:55:40;;;;;;;5.87;5.30;;;18.50;99.90;;;18.51;92.75;98409.03;5038791;28;20632;-81
2021/07/19 02:58:14;;;;;;;9.30;6.00;;;18.40;99.90;;;18.52;92.91;98415.13;5011565;28;20990;-81
2021/07/19 03:00:44;;;;;;;7.63;5.30;;;18.50;99.90;;;18.51;92.96;98414.31;5032393;28;21046;-81
2021/07/19 03:03:19;;;;;;;6.57;5.63;;;18.50;99.90;;;18.52;92.45;98412.50;5007533;28;20992;-82
2021/07/19 03:05:55;;;;;;;6.50;5.77;;;18.50;99.90;;;18.52;93.16;98412.50;5020191;28;20640;-81
2021/07/19 03:08:26;;;;;;;5.33;4.70;;;18.50;99.90;;;18.51;93.00;98413.50;5019994;28;20695;-81
2021/07/19 03:11:10;;;;;;;7.30;5.70;;;18.50;99.90;;;18.50;92.99;98414.47;5030934;28;21126;-81
2021/07/19 03:13:40;;;;;;;7.20;6.50;;;18.50;99.90;;;18.48;93.17;98411.13;5023351;28;20692;-81
2021/07/19 03:16:12;;;;;;;5.63;5.10;;;18.50;99.90;;;18.45;92.30;98411.44;5006848;28;20698;-82
2021/07/19 03:18:48;;;;;;;8.63;5.00;;;18.40;99.90;;;18.42;92.67;98409.91;5041229;28;20742;-82
2021/07/19 03:21:20;;;;;;;6.80;6.20;;;18.40;99.90;;;18.42;92.33;98406.44;5010688;28;20670;-82
2021/07/19 03:23:59;;;;;;;6.33;5.73;;;18.40;99.90;;;18.41;92.92;98402.13;5007983;28;20628;-82
2021/07/19 03:26:30;;;;;;;6.63;5.13;;;18.40;99.90;;;18.34;92.23;98401.03;5011316;28;21269;-81
2021/07/19 03:29:03;;;;;;;8.10;5.50;;;18.30;99.90;;;18.27;91.59;98405.22;5020908;28;20673;-81
2021/07/19 03:31:41;;;;;;;6.43;5.23;;;18.30;99.90;;;18.17;91.46;98411.53;5009787;28;21475;-82
2021/07/19 03:34:15;;;;;;;7.43;5.10;;;18.20;99.90;;;18.13;91.43;98407.50;5022920;28;20671;-81
2021/07/19 03:36:46;;;;;;;5.73;5.13;;;18.10;99.90;;;18.11;91.62;98401.50;5007125;28;21217;-82
2021/07/19 03:39:18;;;;;;;7.47;5.30;;;18.10;99.90;;;18.10;92.38;98402.47;5010528;28;20627;-81
2021/07/19 03:42:06;;;;;;;6.97;5.73;;;18.10;99.90;;;18.09;92.18;98403.47;5005007;28;20652;-81
2021/07/19 03:44:40;;;;;;;7.87;5.17;;;18.10;99.90;;;18.09;92.59;98406.09;5009832;28;21222;-81
2021/07/19 03:47:11;;;;;;;6.93;4.90;;;18.10;99.90;;;18.07;92.91;98408.03;5008544;28;20729;-81
2021/07/19 03:49:43;;;;;;;6.77;5.80;;;18.10;99.90;;;18.06;92.14;98412.47;5008919;28;20639;-81
2021/07/19 03:52:13;;;;;;;7.37;5.80;;;18.00;99.90;;;18.05;92.67;98423.19;5031120;28;20645;-80
2021/07/19 03:54:43;;;;;;;6.90;5.73;;;18.00;99.90;;;18.05;92.81;98418.72;5035212;28;20635;-82
2021/07/19 03:57:15;;;;;;;5.80;4.73;;;18.00;99.90;;;18.03;92.71;98418.06;5010999;28;20982;-82
2021/07/19 03:59:46;;;;;;;7.47;5.57;;;18.00;99.90;;;17.93;91.25;98424.31;5008511;28;20658;-81
2021/07/19 04:02:25;;;;;;;7.80;4.80;;;17.90;99.90;;;17.90;91.83;98416.69;5038941;28;20636;-82
2021/07/19 04:05:04;;;;;;;6.60;5.90;;;17.90;99.90;;;17.91;91.54;98420.19;5009091;28;21008;-82
2021/07/19 04:07:40;;;;;;;6.30;5.63;;;17.90;99.90;;;17.94;92.43;98428.63;5011020;28;20628;-81
2021/07/19 04:10:12;;;;;;;8.20;5.77;;;17.90;99.90;;;17.98;92.67;98430.00;5041079;28;20646;-82
2021/07/19 04:12:49;;;;;;;6.10;5.50;;;17.90;99.90;;;18.03;93.25;98414.59;5022377;28;21194;-82
2021/07/19 04:15:22;;;;;;;7.87;5.87;;;18.00;99.90;;;18.10;93.61;98423.59;5024850;28;20647;-81
2021/07/19 04:17:53;;;;;;;6.20;5.60;;;18.00;99.90;;;18.10;93.30;98423.59;5008027;28;20680;-81
2021/07/19 04:20:30;;;;;;;8.53;5.70;;;18.00;99.90;;;18.11;92.82;98419.97;5022539;28;20639;-80
2021/07/19 04:22:59;;;;;;;7.83;6.10;;;18.00;99.90;;;18.16;92.97;98430.97;5024494;28;20989;-81
2021/07/19 04:25:29;;;;;;;5.90;5.20;;;18.10;99.90;;;18.20;93.28;98424.44;5028611;28;20664;-82
2021/07/19 04:27:59;;;;;;;6.70;5.53;;;18.10;99.90;;;18.24;93.09;98425.81;5013688;28;20642;-81
2021/07/19 04:30:33;;;;;;;6.60;5.00;;;18.20;99.90;;;18.31;92.98;98422.47;5025185;28;20662;-81
2021/07/19 04:33:05;;;;;;;6.10;5.50;;;18.20;99.90;;;18.39;93.05;98424.34;5038162;28;21225;-82
2021/07/19 04:35:35;;;;;;;6.63;5.93;;;18.30;99.90;;;18.39;92.53;98424.34;5028871;28;20630;-81
2021/07/19 04:38:07;;;;;;;8.27;5.60;;;18.30;99.90;;;18.39;92.03;98424.34;5039842;28;20640;-81
2021/07/19 04:40:36;;;;;;;10.97;5.10;;;18.30;99.90;;;18.42;92.51;98430.22;5005692;28;20997;-81
2021/07/19 04:43:05;;;;;;;6.83;5.17;;;18.30;99.90;;;18.49;92.58;98426.84;5009429;28;20635;-82
2021/07/19 04:45:33;;;;;;;8.63;5.10;;;18.40;99.90;;;18.54;92.54;98427.22;5044735;28;20733;-81
2021/07/19 04:48:02;;;;;;;11.80;6.53;;;18.40;99.90;;;18.59;91.85;98427.63;5025833;28;20672;-81
2021/07/19 04:50:31;;;;;;;7.53;6.23;;;18.50;99.90;;;18.60;92.43;98441.69;5025334;28;21059;-81
2021/07/19 04:53:12;;;;;;;6.93;5.90;;;18.40;99.90;;;18.63;92.10;98444.03;5026269;28;20660;-81
2021/07/19 04:55:47;;;;;;;7.13;6.00;;;18.50;99.90;;;18.66;92.37;98435.81;5026617;28;20723;-82
2021/07/19 04:58:17;;;;;;;7.50;6.40;;;18.50;99.90;;;18.71;92.11;98436.19;5020975;28;20631;-82
2021/07/19 05:00:51;;;;;;;6.60;6.00;;;18.60;99.90;;;18.79;92.02;98438.94;5023584;28;20998;-82
2021/07/19 05:03:24;;;;;;;9.10;6.20;;;18.60;99.90;;;18.84;92.56;98426.94;5023846;28;20638;-82
2021/07/19 05:05:55;;;;;;;7.70;5.83;;;18.70;99.90;;;18.90;91.76;98437.75;5020347;28;20701;-82
2021/07/19 05:08:27;;;;;;;7.67;5.80;;;18.80;99.90;;;18.97;92.66;98430.91;5033853;28;20706;-81
2021/07/19 05:10:56;;;;;;;6.20;5.60;;;18.90;99.90;;;19.06;92.29;98431.84;5006749;28;20683;-82
2021/07/19 05:13:27;;;;;;;6.50;5.80;;;18.90;99.90;;;19.12;93.27;98441.84;5027383;28;20656;-82
2021/07/19 05:15:56;;;;;;;7.17;6.03;;;19.00;99.90;;;19.22;92.91;98437.34;5026480;28;20651;-82
2021/07/19 05:18:26;;;;;;;10.47;5.40;;;19.10;99.90;;;19.32;92.43;98435.44;5019401;28;20700;-82
2021/07/19 05:20:56;;;;;;;6.20;5.60;;;19.20;99.90;;;19.40;92.44;98429.25;5011666;28;20670;-81
2021/07/19 05:23:27;;;;;;;7.23;5.77;;;19.20;99.90;;;19.46;93.29;98430.47;4999091;28;21011;-82
2021/07/19 05:25:56;;;;;;;9.47;5.60;;;19.30;99.90;;;19.50;93.08;98435.31;5032921;28;21074;-82
2021/07/19 05:28:25;;;;;;;9.90;6.07;;;19.40;99.90;;;19.60;92.41;98433.41;5029588;28;21258;-81
2021/07/19 05:30:55;;;;;;;6.83;6.13;;;19.50;99.90;;;19.70;90.74;98434.16;5037290;28;20629;-82
2021/07/19 05:33:26;;;;;;;6.73;6.10;;;19.60;99.90;;;19.74;90.95;98435.53;5005811;28;21016;-82
2021/07/19 05:35:55;;;;;;;7.67;6.47;;;19.60;99.90;;;19.79;90.05;98438.53;5021736;28;20622;-80
2021/07/19 05:38:25;;;;;;;9.30;6.50;;;19.70;99.90;;;19.86;90.99;98435.16;5009574;28;20646;-81
2021/07/19 05:40:53;;;;;;;7.10;6.00;;;19.70;99.90;;;19.96;90.88;98437.72;5022062;28;20691;-79
2021/07/19 05:43:22;;;;;;;6.63;5.93;;;19.80;99.90;;;20.05;90.60;98436.78;5013668;28;20675;-80
2021/07/19 05:45:50;;;;;;;12.30;6.07;;;19.90;99.90;;;20.22;91.15;98430.59;5025351;28;20734;-80
2021/07/19 05:48:19;;;;;;;7.70;6.10;;;20.00;99.90;;;20.47;90.87;98436.72;5037187;28;20639;-80
2021/07/19 05:50:48;;;;;;;7.63;6.33;;;20.20;99.90;;;20.80;90.30;98437.78;5034359;28;20660;-82
2021/07/19 05:53:17;;;;;;;8.43;6.00;;;20.50;99.90;;;21.05;88.72;98430.56;5026018;28;20719;-81
2021/07/19 05:55:49;;;;;;;7.10;6.10;;;20.70;99.90;;;21.46;88.63;98438.50;5024452;28;20634;-82
2021/07/19 05:58:19;;;;;;;7.70;6.50;;;21.10;99.90;;;21.93;86.44;98428.91;5004863;28;21147;-81
2021/07/19 06:00:48;;;;;;;6.80;5.53;;;21.50;99.90;;;22.34;86.56;98434.88;5026472;28;20692;-82
2021/07/19 06:03:17;;;;;;;6.47;5.60;;;21.90;99.90;;;22.74;84.50;98440.09;5020443;28;20637;-82
2021/07/19 06:05:47;;;;;;;7.67;6.20;;;22.30;99.90;;;23.09;82.82;98429.81;5023988;28;20638;-82
2021/07/19 06:08:20;;;;;;;6.27;5.67;;;22.60;99.90;;;23.39;80.84;98429.81;5007938;28;20636;-81
2021/07/19 06:10:50;;;;;;;13.17;6.03;;;23.00;99.90;;;23.70;80.86;98427.97;5022929;28;20719;-82
2021/07/19 06:13:20;;;;;;;6.27;5.67;;;23.30;99.90;;;23.94;80.17;98433.13;5030827;28;20670;-82
2021/07/19 06:15:50;;;;;;;6.73;5.80;;;23.60;99.90;;;24.12;79.83;98438.97;5025232;28;20661;-82
2021/07/19 06:18:18;;;;;;;5.97;5.30;;;23.80;99.90;;;24.30;79.62;98435.78;5030265;28;20635;-81
2021/07/19 06:20:47;;;;;;;7.53;5.23;;;24.00;99.90;;;24.44;79.41;98437.66;5019321;28;21094;-81
2021/07/19 06:23:16;;;;;;;6.23;5.10;;;24.10;99.90;;;24.63;78.40;98441.63;5045929;28;20635;-82
2021/07/19 06:25:44;;;;;;;5.77;5.17;;;24.30;99.70;;;24.74;78.31;98436.69;5034975;28;20667;-81
2021/07/19 06:28:14;;;;;;;8.00;6.23;;;24.50;99.30;;;24.86;76.42;98438.69;5029954;28;20656;-82
2021/07/19 06:30:43;;;;;;;7.43;6.00;;;24.50;98.20;;;24.99;77.51;98438.91;5032270;28;20738;-82
2021/07/19 06:33:12;;;;;;;5.90;5.27;;;24.70;98.60;;;25.23;77.10;98446.63;5029417;28;20753;-81
2021/07/19 06:35:40;;;;;;;5.90;5.40;;;24.80;98.80;;;25.41;74.38;98434.50;5019982;28;20657;-82
2021/07/19 06:38:09;;;;;;;7.47;5.60;;;25.00;97.70;;;25.46;75.16;98437.44;5014106;28;20648;-81
2021/07/19 06:40:39;;;;;;;6.40;5.43;;;25.10;97.10;;;25.65;75.37;98445.72;5027834;28;21181;-82
2021/07/19 06:43:08;;;;;;;7.13;5.40;;;25.20;97.00;;;25.81;74.85;98441.94;5030756;28;20658;-81
2021/07/19 06:45:38;;;;;;;5.63;5.03;;;25.40;96.90;;;25.95;74.18;98438.38;5012491;28;20651;-81
2021/07/19 06:48:07;;;;;;;6.07;5.27;;;25.50;95.90;;;26.13;74.12;98434.22;5030411;28;20646;-82
2021/07/19 06:50:36;;;;;;;6.47;5.00;;;25.70;96.10;;;26.33;74.19;98428.06;5032561;28;20752;-82
2021/07/19 06:53:05;;;;;;;8.37;5.37;;;25.90;95.60;;;26.54;72.99;98427.16;5016150;28;20641;-81
2021/07/19 06:55:34;;;;;;;5.30;4.80;;;26.10;95.10;;;26.68;71.21;98430.56;5010899;28;20669;-81
2021/07/19 06:58:03;;;;;;;5.57;5.07;;;26.20;93.60;;;26.84;69.79;98434.78;5021096;28;20657;-81
2021/07/19 07:00:31;;;;;;;5.57;5.07;;;26.40;92.60;;;26.93;70.34;98425.56;5034976;28;21044;-82
2021/07/19 07:03:02;;;;;;;5.70;5.20;;;26.40;92.70;;;27.17;71.16;98429.41;5026374;28;20682;-82
2021/07/19 07:05:31;;;;;;;10.10;5.27;;;26.70;93.40;;;27.45;70.68;98419.41;5026933;28;20642;-81
2021/07/19 07:07:59;;;;;;;5.43;4.47;;;27.00;93.00;;;27.60;68.88;98425.47;5027719;28;20720;-83
2021/07/19 07:10:28;;;;;;;6.17;5.60;;;27.10;91.80;;;27.66;69.54;98420.13;5011884;28;20668;-83
2021/07/19 07:12:57;;;;;;;5.60;4.87;;;27.20;91.20;;;27.74;68.06;98427.97;5009616;28;20664;-82
2021/07/19 07:15:26;;;;;;;5.80;4.83;;;27.30;90.40;;;27.99;68.46;98422.84;5020928;28;20659;-82
2021/07/19 07:17:54;;;;;;;5.17;4.37;;;27.50;90.50;;;28.13;68.03;98426.19;5008499;28;20653;-81
2021/07/19 07:20:25;;;;;;;6.20;5.23;;;27.70;90.40;;;28.12;68.85;98418.34;5017951;28;20669;-83
2021/07/19 07:22:53;;;;;;;6.63;5.50;;;27.70;90.10;;;28.33;70.25;98423.53;5026221;28;20681;-81
2021/07/19 07:25:22;;;;;;;6.27;5.10;;;27.80;91.20;;;28.53;68.37;98412.53;5010900;28;20726;-81
2021/07/19 07:27:51;;;;;;;6.20;4.73;;;28.00;90.40;;;28.68;67.41;98410.47;5024003;28;20655;-82
2021/07/19 07:30:20;;;;;;;4.67;4.23;;;28.20;88.50;;;28.75;66.46;98411.28;5022485;28;20732;-81
2021/07/19 07:32:49;;;;;;;5.23;4.73;;;28.30;86.90;;;28.81;67.42;98413.13;5025284;28;20633;-82
2021/07/19 07:35:18;;;;;;;5.30;4.90;;;28.40;86.90;;;28.95;65.15;98409.38;5027353;28;20672;-81
2021/07/19 07:37:49;;;;;;;6.40;5.20;;;28.50;84.40;;;28.98;65.52;98413.50;5025885;28;20650;-81
2021/07/19 07:40:19;;;;;;;5.60;5.10;;;28.50;83.80;;;29.09;66.44;98410.97;5025044;28;20648;-82
2021/07/19 07:42:47;;;;;;;6.20;5.20;;;28.60;85.20;;;29.13;64.56;98412.19;5015609;28;20702;-82
2021/07/19 07:45:16;;;;;;;5.70;5.20;;;28.70;81.90;;;29.23;65.02;98413.44;5015624;28;20676;-82
2021/07/19 07:47:45;;;;;;;5.30;4.77;;;28.80;81.90;;;29.37;65.50;98411.50;5026711;28;21236;-82
2021/07/19 07:50:14;;;;;;;5.93;5.20;;;28.90;82.70;;;29.39;66.36;98412.94;5026097;28;20694;-81
2021/07/19 07:52:42;;;;;;;5.90;5.30;;;28.90;82.80;;;29.54;64.74;98410.78;5027323;28;20677;-82
2021/07/19 07:55:13;;;;;;;6.20;5.50;;;29.10;80.80;;;29.73;65.84;98420.63;5024814;28;20677;-82
2021/07/19 07:57:42;;;;;;;6.13;5.53;;;29.30;83.40;;;29.76;64.40;98420.19;5027232;28;20648;-82
2021/07/19 08:00:15;;;;;;;6.00;5.30;;;29.30;80.20;;;29.90;64.44;98416.41;5030811;28;20682;-82
2021/07/19 08:02:44;;;;;;;5.27;4.77;;;29.40;80.50;;;29.88;63.29;98415.81;5010793;28;20679;-82
2021/07/19 08:05:15;;;;;;;5.50;5.03;;;29.50;78.20;;;29.97;63.96;98413.44;5019646;28;20748;-82
2021/07/19 08:07:44;;;;;;;5.57;5.10;;;29.60;79.20;;;29.97;64.86;98409.94;5024551;28;20655;-82
2021/07/19 08:10:15;;;;;;;6.60;5.03;;;29.60;80.00;;;29.95;65.83;98404.75;5010567;28;20754;-82
2021/07/19 08:12:46;;;;;;;5.93;5.40;;;29.50;81.30;;;29.93;63.55;98406.00;5026298;28;20662;-82
2021/07/19 08:15:16;;;;;;;6.73;6.07;;;29.60;77.50;;;29.94;61.18;98406.84;5030988;28;20673;-83
2021/07/19 08:17:45;;;;;;;5.73;5.23;;;29.50;74.90;;;29.81;62.52;98401.56;5023922;28;21369;-82
2021/07/19 08:20:17;;;;;;;6.13;5.53;;;29.30;74.20;;;29.86;62.57;98402.56;5023622;28;20667;-81
2021/07/19 08:22:47;;;;;;;6.57;5.53;;;29.50;75.30;;;30.08;62.90;98401.94;5012055;28;20668;-82
2021/07/19 08:25:18;;;;;;;5.83;5.27;;;29.60;77.10;;;30.20;64.02;98402.06;5024683;28;20668;-81
2021/07/19 08:27:48;;;;;;;5.20;4.80;;;29.70;77.90;;;30.18;63.90;98396.09;5015279;28;20722;-82
2021/07/19 08:30:18;;;;;;;5.23;4.80;;;29.70;77.30;;;30.16;63.39;98396.31;5012992;28;21237;-82
2021/07/19 08:32:47;;;;;;;5.90;5.20;;;29.70;77.10;;;30.21;66.57;98399.16;5024112;28;20650;-83
2021/07/19 08:35:15;;;;;;;6.30;5.70;;;29.70;79.90;;;30.25;62.77;98399.53;5020417;28;21192;-82
2021/07/19 08:37:47;;;;;;;7.17;6.23;;;29.70;74.90;;;30.33;63.32;98389.31;5025428;28;20673;-81
2021/07/19 08:40:20;;;;;;;5.40;5.00;;;29.90;76.90;;;30.42;62.86;98394.22;5044139;28;20645;-81
2021/07/19 08:42:49;;;;;;;5.57;4.97;;;30.00;75.50;;;30.46;62.98;98391.91;5025183;28;20655;-83
2021/07/19 08:45:18;;;;;;;6.40;5.30;;;30.00;74.70;;;30.50;60.84;98393.94;5009400;28;21215;-82
2021/07/19 08:47:53;;;;;;;5.53;4.97;;;30.00;72.00;;;30.60;61.26;98386.19;5007046;28;20676;-82
2021/07/19 08:50:24;;;;;;;5.07;4.53;;;30.10;72.20;;;30.66;60.92;98392.56;5029672;28;20640;-82
2021/07/19 08:52:55;;;;;;;5.70;5.20;;;30.20;71.00;;;30.73;61.66;98377.13;5026525;28;20653;-82
2021/07/19 08:55:27;;;;;;;5.80;5.20;;;30.30;72.30;;;30.76;62.46;98376.69;5027673;28;20661;-82
2021/07/19 08:57:56;;;;;;;7.23;5.60;;;30.30;73.50;;;30.78;62.16;98375.41;5034660;28;21066;-81
2021/07/19 09:00:25;;;;;;;6.47;5.73;;;30.30;72.90;;;30.81;61.74;98385.75;5024338;28;20653;-82
2021/07/19 09:02:55;;;;;;;9.70;5.10;;;30.40;72.90;;;30.91;62.53;98383.38;5024831;28;20642;-82
2021/07/19 09:05:27;;;;;;;6.23;5.57;;;30.40;73.00;;;30.86;62.82;98377.81;5033361;28;20669;-82
2021/07/19 09:07:57;;;;;;;5.50;5.10;;;30.40;72.40;;;30.98;63.23;98374.16;5008273;28;20666;-82
2021/07/19 09:10:28;;;;;;;7.40;6.70;;;30.50;73.30;;;31.08;62.00;98379.03;5011729;28;20716;-82
2021/07/19 09:12:59;;;;;;;6.17;5.67;;;30.60;72.40;;;31.23;62.60;98380.28;5003124;28;20725;-84
2021/07/19 09:15:34;;;;;;;5.83;5.23;;;30.70;73.90;;;31.00;62.87;98372.09;5027390;28;20645;-82
2021/07/19 09:18:05;;;;;;;5.60;5.10;;;30.50;73.20;;;31.14;63.28;98378.97;5031344;28;20654;-82
2021/07/19 09:20:37;;;;;;;5.37;4.97;;;30.70;74.20;;;30.93;62.32;98371.31;5028129;28;20658;-82
2021/07/19 09:23:06;;;;;;;5.90;5.37;;;30.50;72.70;;;30.38;63.45;98373.34;5040682;28;20661;-82
2021/07/19 09:25:36;;;;;;;6.30;4.93;;;30.10;73.40;;;29.95;65.25;98374.34;5026334;28;20761;-82
2021/07/19 09:28:10;;;;;;;6.90;5.20;;;29.80;75.50;;;29.62;65.18;98372.88;5023077;28;20665;-82
2021/07/19 09:30:43;;;;;;;6.43;5.80;;;29.50;74.80;;;29.36;66.79;98362.25;5029399;28;20649;-82
2021/07/19 09:33:17;;;;;;;6.23;5.63;;;29.20;76.80;;;29.16;66.76;98369.59;5027988;28;20661;-82
2021/07/19 09:35:52;;;;;;;5.23;4.73;;;29.00;77.80;;;29.03;66.74;98358.06;5024861;28;20719;-81
2021/07/19 09:38:20;;;;;;;7.73;7.03;;;28.90;77.60;;;28.99;67.62;98363.03;5026622;28;21071;-82
2021/07/19 09:40:59;;;;;;;6.20;5.60;;;28.80;79.20;;;29.37;67.92;98355.84;5038333;28;20637;-82
2021/07/19 09:43:32;;;;;;;5.40;4.90;;;29.00;80.20;;;29.73;67.74;98356.03;5009321;28;20633;-81
2021/07/19 09:46:04;;;;;;;5.80;5.30;;;29.30;80.10;;;29.95;66.67;98348.22;5031399;28;20641;-83
2021/07/19 09:48:34;;;;;;;5.57;5.07;;;29.50;78.90;;;30.06;65.38;98352.91;5015600;28;20672;-81
2021/07/19 09:51:05;;;;;;;6.63;4.77;;;29.60;77.50;;;30.17;63.92;98349.47;5022121;28;20655;-81
2021/07/19 09:53:38;;;;;;;5.30;4.80;;;29.70;75.60;;;30.32;63.65;98351.84;5029162;28;20654;-81
2021/07/19 09:56:15;;;;;;;5.57;5.07;;;29.80;75.60;;;30.38;60.14;98350.97;5029384;28;20650;-82
2021/07/19 09:58:47;;;;;;;5.30;4.80;;;29.90;69.70;;;30.35;64.97;98351.44;5010369;28;20665;-82
2021/07/19 10:01:27;;;;;;;5.47;5.07;;;29.90;72.50;;;30.50;62.17;98353.53;5023302;28;20652;-82
2021/07/19 10:04:08;;;;;;;5.57;5.07;;;30.00;71.80;;;30.62;61.76;98348.25;5008198;28;20657;-81
2021/07/19 10:06:39;;;;;;;5.70;5.10;;;30.10;71.70;;;30.37;60.38;98350.16;5031525;28;20702;-84
2021/07/19 10:09:11;;;;;;;6.90;4.63;;;30.00;68.40;;;29.90;61.12;98333.78;5027883;28;21355;-81
2021/07/19 10:11:45;;;;;;;5.63;4.60;;;29.70;68.00;;;29.42;61.43;98334.50;5010011;28;20652;-82
2021/07/19 10:14:25;;;;;;;5.93;5.07;;;29.30;68.30;;;29.19;63.88;98336.06;5015624;28;20706;-82
2021/07/19 10:16:54;;;;;;;5.37;4.93;;;29.00;71.90;;;29.15;64.02;98326.78;5028969;28;20661;-82
2021/07/19 10:19:24;;;;;;;5.57;5.03;;;28.90;72.70;;;29.55;64.67;98337.13;5017503;28;20644;-81
2021/07/19 10:21:54;;;;;;;5.97;5.20;;;29.10;74.70;;;29.87;64.36;98333.41;5020087;28;21211;-82
2021/07/19 10:24:23;;;;;;;5.67;5.17;;;29.40;75.10;;;30.07;63.48;98338.41;5013673;28;20967;-82
2021/07/19 10:26:53;;;;;;;4.93;4.53;;;29.60;73.60;;;30.25;64.55;98333.06;5012912;28;20726;-82
2021/07/19 10:29:22;;;;;;;4.80;4.30;;;29.70;74.30;;;30.44;63.07;98326.66;5046110;28;20244;-82
2021/07/19 10:31:51;;;;;;;5.00;4.60;;;29.90;73.60;;;30.26;62.67;98336.56;5002402;28;20653;-82
2021/07/19 10:34:21;;;;;;;5.03;4.53;;;29.90;71.30;;;30.01;64.16;98339.28;5024293;28;21459;-82
2021/07/19 10:36:55;;;;;;;5.53;5.00;;;29.70;72.80;;;30.02;59.96;98329.31;5012266;28;20726;-83